createdAt,value
2019-03-23T00:01:04.007Z,19.95
2019-03-23T00:04:00.660Z,20.85
2019-03-23T00:06:57.985Z,21.35
2019-03-23T00:09:55.574Z,21.00
2019-03-23T00:12:54.673Z,19.80
2019-03-23T00:15:52.076Z,20.27
2019-03-23T00:18:49.177Z,20.12
2019-03-23T00:21:45.629Z,19.65
2019-03-23T00:24:42.446Z,19.82
2019-03-23T00:27:39.517Z,19.87
2019-03-23T00:30:36.638Z,19.80
2019-03-23T00:33:34.013Z,19.92
2019-03-23T00:36:40.779Z,20.85
2019-03-23T00:39:29.733Z,19.12
2019-03-23T00:42:27.311Z,19.85
2019-03-23T00:45:25.554Z,20.12
2019-03-23T00:48:22.283Z,19.30
2019-03-23T00:51:19.225Z,18.02
2019-03-23T00:54:16.860Z,19.45
2019-03-23T00:57:17.137Z,18.27
2019-03-23T01:00:15.399Z,19.85
2019-03-23T01:03:13.353Z,19.32
2019-03-23T01:06:11.151Z,19.32
2019-03-23T01:09:09.490Z,19.62
2019-03-23T01:12:07.629Z,19.25
2019-03-23T01:15:05.031Z,19.07
2019-03-23T01:18:01.825Z,20.40
2019-03-23T01:20:58.247Z,18.77
2019-03-23T01:23:55.606Z,19.52
2019-03-23T01:26:53.407Z,19.67
2019-03-23T01:29:50.171Z,19.42
2019-03-23T01:32:47.816Z,19.32
2019-03-23T01:35:44.816Z,20.05
2019-03-23T01:38:41.796Z,20.32
2019-03-23T01:41:38.818Z,18.73
2019-03-23T01:44:35.309Z,20.37
2019-03-23T01:47:33.327Z,18.17
2019-03-23T01:50:30.435Z,19.55
2019-03-23T01:53:27.220Z,18.65
2019-03-23T01:56:24.697Z,19.25
2019-03-23T01:59:22.241Z,18.82
2019-03-23T02:02:19.042Z,19.87
2019-03-23T02:05:16.400Z,19.30
2019-03-23T02:08:16.109Z,18.85
2019-03-23T02:11:14.856Z,19.00
2019-03-23T02:14:11.492Z,19.15
2019-03-23T02:17:07.949Z,19.57
2019-03-23T02:20:07.682Z,20.10
2019-03-23T02:23:04.308Z,18.60
2019-03-23T02:26:01.170Z,19.50
2019-03-23T02:28:57.543Z,20.50
2019-03-23T02:31:55.402Z,19.23
2019-03-23T02:34:52.892Z,17.50
2019-03-23T02:37:50.349Z,18.10
2019-03-23T02:40:48.065Z,20.00
2019-03-23T02:43:45.477Z,19.50
2019-03-23T02:46:42.816Z,20.90
2019-03-23T02:49:40.276Z,22.48
2019-03-23T02:52:38.447Z,21.25
2019-03-23T02:55:34.868Z,19.27
2019-03-23T02:58:32.609Z,20.20
2019-03-23T03:01:30.317Z,19.92
2019-03-23T03:04:27.631Z,19.98
2019-03-23T03:07:26.012Z,18.77
2019-03-23T03:10:41.573Z,19.27
2019-03-23T03:13:39.314Z,19.98
2019-03-23T03:16:36.478Z,19.67
2019-03-23T03:19:34.270Z,20.15
2019-03-23T03:22:31.216Z,19.87
2019-03-23T03:25:28.089Z,19.67
2019-03-23T03:28:25.819Z,20.17
2019-03-23T03:31:29.452Z,20.60
2019-03-23T03:34:27.716Z,20.05
2019-03-23T03:37:24.196Z,21.62
2019-03-23T03:40:20.503Z,22.42
2019-03-23T03:43:17.886Z,21.23
2019-03-23T03:46:14.644Z,20.80
2019-03-23T03:49:13.003Z,20.75
2019-03-23T03:52:10.804Z,21.30
2019-03-23T03:55:08.382Z,20.82
2019-03-23T03:58:06.166Z,20.12
2019-03-23T04:01:03.676Z,21.05
2019-03-23T04:04:00.190Z,19.35
2019-03-23T04:06:57.030Z,20.15
2019-03-23T04:09:54.444Z,19.07
2019-03-23T04:12:51.444Z,18.92
2019-03-23T04:15:48.330Z,18.70
2019-03-23T04:18:44.693Z,19.87
2019-03-23T04:21:41.149Z,20.27
2019-03-23T04:24:38.679Z,18.90
2019-03-23T04:27:35.530Z,19.98
2019-03-23T04:30:32.153Z,19.95
2019-03-23T04:33:29.563Z,19.42
2019-03-23T04:36:26.164Z,19.90
2019-03-23T04:39:23.628Z,19.92
2019-03-23T04:42:20.982Z,19.15
2019-03-23T04:45:18.565Z,21.50
2019-03-23T04:48:15.913Z,20.48
2019-03-23T04:51:14.198Z,19.82
2019-03-23T04:54:12.278Z,21.62
2019-03-23T04:57:09.822Z,20.40
2019-03-23T05:00:09.028Z,19.95
2019-03-23T05:03:05.610Z,20.20
2019-03-23T05:06:03.174Z,20.25
2019-03-23T05:08:59.695Z,20.65
2019-03-23T05:11:57.017Z,20.40
2019-03-23T05:14:54.607Z,19.23
2019-03-23T05:17:52.146Z,19.17
2019-03-23T05:20:49.497Z,19.95
2019-03-23T05:23:47.270Z,21.02
2019-03-23T05:26:44.758Z,20.77
2019-03-23T05:29:41.389Z,20.05
2019-03-23T05:32:39.185Z,20.15
2019-03-23T05:35:36.650Z,18.98
2019-03-23T05:38:43.580Z,20.50
2019-03-23T05:41:31.494Z,19.02
2019-03-23T05:44:28.414Z,18.02
2019-03-23T05:47:25.759Z,18.20
2019-03-23T05:50:22.352Z,18.15
2019-03-23T05:53:19.981Z,18.73
2019-03-23T05:56:16.453Z,18.52
2019-03-23T05:59:13.734Z,19.50
2019-03-23T06:02:11.082Z,18.75
2019-03-23T06:05:07.978Z,19.00
2019-03-23T06:08:05.955Z,19.62
2019-03-23T06:11:03.003Z,18.73
2019-03-23T06:13:59.922Z,19.65
2019-03-23T06:16:56.394Z,19.10
2019-03-23T06:19:55.920Z,19.07
2019-03-23T06:22:53.614Z,18.77
2019-03-23T06:25:51.366Z,19.12
2019-03-23T06:28:48.591Z,19.23
2019-03-23T06:31:46.049Z,19.27
2019-03-23T06:34:45.883Z,19.77
2019-03-23T06:37:45.614Z,20.15
2019-03-23T06:40:43.687Z,20.82
2019-03-23T06:43:41.181Z,20.05
2019-03-23T06:46:40.523Z,20.08
2019-03-23T06:49:37.657Z,19.35
2019-03-23T06:52:34.552Z,21.75
2019-03-23T06:55:32.540Z,21.47
2019-03-23T06:58:28.737Z,21.80
2019-03-23T07:01:27.482Z,22.63
2019-03-23T07:04:26.680Z,23.17
2019-03-23T07:07:23.039Z,22.20
2019-03-23T07:10:20.466Z,22.03
2019-03-23T07:13:16.674Z,22.73
2019-03-23T07:16:13.814Z,22.30
2019-03-23T07:19:10.894Z,22.87
2019-03-23T07:22:07.273Z,21.60
2019-03-23T07:25:06.837Z,21.47
2019-03-23T07:28:03.358Z,21.57
2019-03-23T07:31:02.523Z,21.40
2019-03-23T07:33:59.094Z,20.97
2019-03-23T07:36:56.067Z,21.30
2019-03-23T07:39:52.142Z,20.50
2019-03-23T07:42:48.614Z,20.53
2019-03-23T07:45:45.502Z,21.77
2019-03-23T07:48:42.685Z,20.23
2019-03-23T07:51:39.992Z,19.60
2019-03-23T07:54:37.432Z,19.20
2019-03-23T07:57:34.486Z,19.73
2019-03-23T08:00:31.719Z,19.23
2019-03-23T08:03:28.914Z,20.10
2019-03-23T08:06:25.063Z,20.80
2019-03-23T08:09:23.551Z,21.07
2019-03-23T08:12:20.771Z,18.90
2019-03-23T08:15:17.755Z,18.43
2019-03-23T08:18:15.253Z,19.07
2019-03-23T08:21:12.722Z,17.87
2019-03-23T08:24:08.719Z,18.03
2019-03-23T08:27:05.697Z,17.80
2019-03-23T08:30:01.943Z,19.27
2019-03-23T08:33:00.089Z,19.73
2019-03-23T08:35:57.801Z,19.70
2019-03-23T08:38:54.213Z,19.80
2019-03-23T08:41:50.832Z,18.80
2019-03-23T08:44:48.335Z,18.33
2019-03-23T08:47:45.625Z,17.63
2019-03-23T08:50:42.336Z,18.17
2019-03-23T08:53:39.819Z,19.17
2019-03-23T08:56:37.510Z,18.97
2019-03-23T08:59:34.496Z,17.70
2019-03-23T09:02:33.187Z,16.93
2019-03-23T09:05:30.314Z,15.60
2019-03-23T09:08:28.055Z,14.27
2019-03-23T09:11:24.574Z,14.77
2019-03-23T09:14:20.873Z,13.97
2019-03-23T09:17:17.156Z,11.33
2019-03-23T09:20:14.802Z,6.00
2019-03-23T09:23:10.988Z,9.17
2019-03-23T09:26:07.178Z,5.37
2019-03-23T09:29:03.636Z,4.83
2019-03-23T09:32:00.251Z,5.73
2019-03-23T09:34:57.779Z,5.87
2019-03-23T09:37:54.264Z,5.10
2019-03-23T09:40:50.637Z,5.00
2019-03-23T09:43:47.642Z,4.97
2019-03-23T09:46:44.840Z,4.83
2019-03-23T09:49:41.764Z,7.03
2019-03-23T09:52:37.919Z,5.30
2019-03-23T09:55:34.908Z,5.43
2019-03-23T09:58:31.200Z,5.40
2019-03-23T10:01:27.289Z,5.30
2019-03-23T10:04:23.940Z,5.40
2019-03-23T10:07:22.236Z,4.97
2019-03-23T10:10:22.129Z,6.00
2019-03-23T10:13:19.403Z,5.50
2019-03-23T10:16:15.868Z,5.87
2019-03-23T10:19:13.102Z,5.67
2019-03-23T10:22:10.133Z,5.80
2019-03-23T10:25:06.876Z,5.90
2019-03-23T10:28:03.774Z,6.43
2019-03-23T10:31:00.783Z,6.13
2019-03-23T10:33:57.767Z,6.30
2019-03-23T10:36:59.266Z,6.70
2019-03-23T10:39:56.469Z,6.27
2019-03-23T10:42:52.593Z,7.33
2019-03-23T10:45:48.737Z,7.20
2019-03-23T10:48:47.911Z,6.97
2019-03-23T10:51:48.645Z,6.90
2019-03-23T10:54:46.242Z,7.90
2019-03-23T10:57:42.575Z,7.63
2019-03-23T11:00:38.986Z,7.53
2019-03-23T11:03:35.450Z,8.33
2019-03-23T11:06:32.854Z,8.40
2019-03-23T11:09:30.033Z,9.20
2019-03-23T11:12:26.553Z,8.77
2019-03-23T11:15:23.775Z,8.03
2019-03-23T11:18:23.196Z,8.77
2019-03-23T11:21:19.670Z,8.77
2019-03-23T11:24:18.401Z,8.57
2019-03-23T11:27:14.383Z,8.40
2019-03-23T11:30:11.759Z,8.97
2019-03-23T11:33:07.895Z,8.30
2019-03-23T11:36:04.643Z,8.43
2019-03-23T11:39:02.326Z,8.17
2019-03-23T11:42:00.002Z,8.20
2019-03-23T11:44:58.482Z,8.23
2019-03-23T11:47:55.398Z,7.93
2019-03-23T11:50:51.937Z,8.60
2019-03-23T11:53:49.421Z,9.37
2019-03-23T11:56:46.328Z,8.53
2019-03-23T11:59:43.090Z,9.07
2019-03-23T12:02:40.259Z,10.27
2019-03-23T12:05:37.245Z,9.73
2019-03-23T12:08:33.358Z,8.87
2019-03-23T12:11:30.564Z,8.83
2019-03-23T12:14:27.312Z,9.87
2019-03-23T12:17:24.595Z,9.73
2019-03-23T12:20:21.130Z,9.57
2019-03-23T12:23:18.771Z,9.63
2019-03-23T12:26:15.753Z,10.80
2019-03-23T12:29:13.623Z,10.70
2019-03-23T12:32:10.135Z,10.20
2019-03-23T12:35:10.115Z,11.33
2019-03-23T12:38:06.689Z,9.43
2019-03-23T12:41:14.242Z,9.33
2019-03-23T12:44:03.907Z,8.87
2019-03-23T12:47:01.639Z,9.20
2019-03-23T12:49:58.064Z,10.77
2019-03-23T12:52:57.489Z,10.53
2019-03-23T12:55:53.983Z,10.90
2019-03-23T12:58:50.233Z,11.87
2019-03-23T13:01:47.307Z,11.87
2019-03-23T13:04:48.063Z,12.10
2019-03-23T13:07:44.975Z,11.27
2019-03-23T13:10:41.780Z,13.73
2019-03-23T13:13:38.142Z,12.90
2019-03-23T13:16:34.722Z,11.73
2019-03-23T13:19:34.387Z,12.60
2019-03-23T13:22:30.510Z,11.93
2019-03-23T13:25:26.871Z,12.03
2019-03-23T13:28:26.380Z,13.17
2019-03-23T13:31:23.853Z,12.40
2019-03-23T13:34:21.026Z,13.30
2019-03-23T13:37:17.161Z,12.40
2019-03-23T13:40:16.240Z,13.60
2019-03-23T13:43:13.537Z,12.87
2019-03-23T13:46:09.560Z,12.63
2019-03-23T13:49:05.806Z,12.60
2019-03-23T13:52:33.683Z,12.40
2019-03-23T13:55:34.011Z,12.27
2019-03-23T13:58:30.828Z,12.13
2019-03-23T14:01:29.877Z,12.27
2019-03-23T14:04:26.159Z,11.73
2019-03-23T14:07:23.124Z,11.97
2019-03-23T14:10:19.810Z,12.00
2019-03-23T14:13:16.062Z,12.03
2019-03-23T14:16:13.245Z,12.57
2019-03-23T14:19:11.057Z,12.20
2019-03-23T14:22:07.714Z,11.90
2019-03-23T14:25:05.218Z,11.30
2019-03-23T14:28:02.491Z,11.30
2019-03-23T14:30:58.906Z,11.40
2019-03-23T14:33:55.968Z,11.23
2019-03-23T14:36:53.430Z,12.67
2019-03-23T14:39:50.317Z,11.67
2019-03-23T14:42:47.460Z,12.07
2019-03-23T14:45:45.122Z,12.43
2019-03-23T14:48:41.277Z,18.33
2019-03-23T14:51:37.501Z,12.25
2019-03-23T14:54:33.941Z,12.20
2019-03-23T14:57:31.315Z,13.27
2019-03-23T15:00:33.564Z,14.93
2019-03-23T15:03:30.460Z,14.03
2019-03-23T15:06:27.542Z,13.90
2019-03-23T15:09:24.247Z,13.90
2019-03-23T15:12:20.532Z,14.13
2019-03-23T15:15:17.808Z,13.80
2019-03-23T15:18:15.338Z,13.87
2019-03-23T15:21:11.717Z,14.17
2019-03-23T15:24:08.437Z,13.80
2019-03-23T15:27:05.382Z,14.67
2019-03-23T15:30:02.054Z,14.07
2019-03-23T15:32:58.195Z,14.67
2019-03-23T15:35:55.311Z,14.30
2019-03-23T15:38:52.526Z,14.13
2019-03-23T15:41:49.133Z,12.70
2019-03-23T15:44:45.620Z,13.70
2019-03-23T15:47:43.063Z,12.97
2019-03-23T15:50:40.239Z,12.83
2019-03-23T15:53:36.685Z,12.60
2019-03-23T15:56:33.861Z,11.40
2019-03-23T15:59:31.058Z,13.27
2019-03-23T16:02:28.058Z,12.43
2019-03-23T16:05:25.025Z,13.53
2019-03-23T16:08:22.156Z,13.80
2019-03-23T16:11:20.858Z,14.07
2019-03-23T16:14:17.503Z,12.57
2019-03-23T16:17:14.538Z,12.13
2019-03-23T16:20:12.629Z,13.60
2019-03-23T16:23:11.354Z,14.00
2019-03-23T16:26:07.738Z,14.53
2019-03-23T16:29:04.589Z,16.73
2019-03-23T16:32:01.326Z,15.67
2019-03-23T16:34:58.118Z,17.20
2019-03-23T16:37:54.156Z,18.87
2019-03-23T16:40:50.259Z,20.77
2019-03-23T16:43:47.408Z,21.50
2019-03-23T16:46:45.252Z,21.17
2019-03-23T16:49:42.382Z,23.57
2019-03-23T16:52:39.867Z,25.33
2019-03-23T16:55:35.972Z,26.90
2019-03-23T16:58:32.894Z,31.17
2019-03-23T17:01:29.840Z,35.87
2019-03-23T17:04:26.279Z,36.30
2019-03-23T17:07:22.482Z,41.33
2019-03-23T17:10:19.651Z,40.17
2019-03-23T17:13:15.905Z,42.10
2019-03-23T17:16:14.482Z,40.83
2019-03-23T17:19:11.073Z,42.37
2019-03-23T17:22:08.050Z,44.17
2019-03-23T17:25:07.294Z,43.70
2019-03-23T17:28:03.657Z,44.60
2019-03-23T17:31:01.297Z,47.03
2019-03-23T17:33:58.814Z,44.83
2019-03-23T17:36:56.185Z,44.77
2019-03-23T17:39:53.384Z,44.50
2019-03-23T17:42:53.986Z,43.57
2019-03-23T17:45:53.806Z,42.17
2019-03-23T17:48:52.283Z,42.93
2019-03-23T17:51:51.605Z,40.33
2019-03-23T17:54:49.288Z,40.95
2019-03-23T17:57:45.872Z,39.38
2019-03-23T18:00:43.383Z,38.45
2019-03-23T18:03:40.967Z,39.08
2019-03-23T18:06:38.437Z,39.30
2019-03-23T18:09:35.637Z,39.67
2019-03-23T18:12:33.095Z,40.43
2019-03-23T18:15:29.753Z,42.15
2019-03-23T18:18:26.695Z,36.53
2019-03-23T18:21:23.359Z,37.58
2019-03-23T18:24:20.164Z,34.88
2019-03-23T18:27:17.159Z,36.50
2019-03-23T18:30:40.302Z,34.97
2019-03-23T18:33:38.024Z,36.77
2019-03-23T18:36:34.333Z,36.10
2019-03-23T18:39:30.713Z,36.53
2019-03-23T18:42:28.169Z,36.50
2019-03-23T18:45:25.178Z,36.73
2019-03-23T18:48:22.621Z,34.33
2019-03-23T18:51:20.238Z,33.50
2019-03-23T18:54:17.265Z,34.38
2019-03-23T18:57:13.612Z,31.45
2019-03-23T19:00:11.406Z,31.85
2019-03-23T19:03:08.472Z,31.70
2019-03-23T19:06:07.733Z,30.30
2019-03-23T19:09:05.664Z,30.52
2019-03-23T19:12:03.507Z,29.95
2019-03-23T19:15:02.096Z,29.20
2019-03-23T19:18:00.664Z,31.75
2019-03-23T19:20:57.548Z,29.10
2019-03-23T19:23:55.310Z,29.70
2019-03-23T19:26:52.621Z,29.10
2019-03-23T19:29:49.514Z,31.50
2019-03-23T19:32:47.367Z,30.43
2019-03-23T19:35:44.789Z,30.27
2019-03-23T19:38:42.612Z,30.45
2019-03-23T19:41:39.464Z,28.75
2019-03-23T19:44:36.269Z,29.00
2019-03-23T19:47:33.923Z,29.48
2019-03-23T19:50:31.605Z,28.95
2019-03-23T19:53:28.705Z,28.10
2019-03-23T19:56:25.349Z,27.95
2019-03-23T19:59:22.941Z,28.67
2019-03-23T20:02:19.443Z,28.32
2019-03-23T20:05:17.042Z,29.12
2019-03-23T20:08:14.611Z,27.85
2019-03-23T20:11:11.290Z,28.32
2019-03-23T20:14:08.727Z,27.40
2019-03-23T20:17:06.114Z,33.25
2019-03-23T20:20:03.965Z,29.05
2019-03-23T20:23:01.535Z,28.70
2019-03-23T20:25:58.382Z,28.00
2019-03-23T20:28:57.121Z,28.00
2019-03-23T20:31:55.030Z,30.10
2019-03-23T20:34:52.540Z,29.85
2019-03-23T20:37:49.260Z,29.85
2019-03-23T20:40:46.457Z,29.32
2019-03-23T20:43:44.005Z,29.82
2019-03-23T20:46:41.550Z,29.50
2019-03-23T20:49:39.413Z,29.32
2019-03-23T20:52:37.174Z,28.67
2019-03-23T20:55:33.545Z,29.35
2019-03-23T20:58:32.331Z,29.60
2019-03-23T21:01:28.992Z,28.85
2019-03-23T21:04:25.557Z,28.32
2019-03-23T21:07:22.207Z,30.57
2019-03-23T21:10:19.476Z,29.87
2019-03-23T21:13:18.417Z,29.45
2019-03-23T21:16:15.794Z,29.37
2019-03-23T21:19:13.334Z,29.67
2019-03-23T21:22:10.522Z,28.10
2019-03-23T21:25:08.093Z,28.73
2019-03-23T21:28:04.961Z,28.90
2019-03-23T21:31:02.106Z,28.10
2019-03-23T21:34:00.901Z,28.40
2019-03-23T21:36:58.296Z,27.75
2019-03-23T21:39:54.771Z,29.85
2019-03-23T21:42:52.638Z,28.62
2019-03-23T21:45:50.188Z,27.90
2019-03-23T21:48:46.708Z,25.85
2019-03-23T21:51:44.232Z,26.90
2019-03-23T21:54:41.587Z,28.10
2019-03-23T21:57:39.142Z,27.37
2019-03-23T22:00:38.182Z,28.27
2019-03-23T22:03:35.866Z,27.13
2019-03-23T22:06:33.415Z,26.35
2019-03-23T22:09:30.337Z,27.00
2019-03-23T22:12:29.448Z,27.87
2019-03-23T22:15:26.191Z,27.30
2019-03-23T22:18:23.839Z,26.68
2019-03-23T22:21:21.211Z,28.02
2019-03-23T22:24:18.894Z,29.05
2019-03-23T22:27:19.102Z,29.90
2019-03-23T22:30:16.922Z,30.25
2019-03-23T22:33:13.921Z,28.77
2019-03-23T22:36:11.588Z,28.12
2019-03-23T22:39:09.681Z,28.20
2019-03-23T22:42:07.061Z,29.95
2019-03-23T22:45:04.294Z,28.45
2019-03-23T22:48:02.050Z,28.47
2019-03-23T22:50:59.898Z,27.27
2019-03-23T22:53:57.389Z,28.27
2019-03-23T22:56:55.241Z,28.85
2019-03-23T22:59:52.595Z,26.52
2019-03-23T23:02:50.277Z,29.60
2019-03-23T23:05:47.668Z,28.23
2019-03-23T23:08:44.247Z,27.93
2019-03-23T23:11:41.768Z,28.57
2019-03-23T23:14:40.760Z,26.80
2019-03-23T23:17:38.175Z,27.52
2019-03-23T23:20:36.251Z,27.17
2019-03-23T23:23:33.484Z,27.85
2019-03-23T23:26:34.226Z,27.65
2019-03-23T23:29:30.730Z,27.48
2019-03-23T23:32:27.564Z,27.02
2019-03-23T23:35:24.622Z,27.95
2019-03-23T23:38:21.938Z,27.48
2019-03-23T23:41:19.190Z,28.20
2019-03-23T23:44:16.982Z,25.92
2019-03-23T23:47:13.542Z,28.05
2019-03-23T23:50:11.507Z,28.38
2019-03-23T23:53:09.089Z,28.80
2019-03-23T23:56:06.305Z,26.85
2019-03-23T23:59:03.154Z,27.48
